createdAt,value
2017-06-14T00:00:22.943Z,930.63
2017-06-14T00:00:51.152Z,930.62
2017-06-14T00:02:03.159Z,930.63
2017-06-14T00:02:31.287Z,930.61
2017-06-14T00:02:59.517Z,930.62
2017-06-14T00:03:27.773Z,930.6
2017-06-14T00:03:55.988Z,930.61
2017-06-14T00:04:24.253Z,930.6
2017-06-14T00:04:52.301Z,930.59
2017-06-14T00:05:20.547Z,930.58
2017-06-14T00:05:48.815Z,930.6
2017-06-14T00:06:17.229Z,930.64
2017-06-14T00:06:45.534Z,930.66
2017-06-14T00:07:56.858Z,930.69
2017-06-14T00:08:25.200Z,930.71
2017-06-14T00:08:53.346Z,930.71
2017-06-14T00:09:21.709Z,930.71
2017-06-14T00:09:49.820Z,930.71
2017-06-14T00:10:17.919Z,930.7
2017-06-14T00:10:46.063Z,930.71
2017-06-14T00:11:14.163Z,930.72
2017-06-14T00:11:42.417Z,930.7
2017-06-14T00:12:10.801Z,930.67
2017-06-14T00:12:39.105Z,930.64
2017-06-14T00:13:50.255Z,930.64
2017-06-14T00:14:18.592Z,930.64
2017-06-14T00:14:46.917Z,930.64
2017-06-14T00:15:15.279Z,930.63
2017-06-14T00:15:43.491Z,930.6
2017-06-14T00:16:11.571Z,930.61
2017-06-14T00:16:39.816Z,930.62
2017-06-14T00:17:07.984Z,930.61
2017-06-14T00:17:36.260Z,930.64
2017-06-14T00:18:04.572Z,930.59
2017-06-14T00:18:32.873Z,930.59
2017-06-14T00:19:44.195Z,930.62
2017-06-14T00:20:12.312Z,930.62
2017-06-14T00:20:40.609Z,930.65
2017-06-14T00:21:08.945Z,930.63
2017-06-14T00:21:37.159Z,930.65
2017-06-14T00:22:05.424Z,930.67
2017-06-14T00:22:33.569Z,930.66
2017-06-14T00:23:01.652Z,930.7
2017-06-14T00:23:29.917Z,930.71
2017-06-14T00:23:58.310Z,930.72
2017-06-14T00:24:26.610Z,930.74
2017-06-14T00:25:37.827Z,930.75
2017-06-14T00:26:06.052Z,930.8
2017-06-14T00:26:34.257Z,930.74
2017-06-14T00:27:02.441Z,930.76
2017-06-14T00:27:30.649Z,930.79
2017-06-14T00:27:58.818Z,930.78
2017-06-14T00:28:26.881Z,930.77
2017-06-14T00:28:55.812Z,930.8
2017-06-14T00:29:24.166Z,930.77
2017-06-14T00:29:52.463Z,930.78
2017-06-14T00:30:20.769Z,930.77
2017-06-14T00:31:32.091Z,930.84
2017-06-14T00:32:00.382Z,930.78
2017-06-14T00:32:28.571Z,930.77
2017-06-14T00:32:56.806Z,930.79
2017-06-14T00:33:25.015Z,930.75
2017-06-14T00:33:53.000Z,930.72
2017-06-14T00:34:21.055Z,930.73
2017-06-14T00:34:49.310Z,930.74
2017-06-14T00:35:17.669Z,930.74
2017-06-14T00:35:45.863Z,930.73
2017-06-14T00:36:14.164Z,930.73
2017-06-14T00:37:25.502Z,930.69
2017-06-14T00:37:53.616Z,930.69
2017-06-14T00:38:21.836Z,930.69
2017-06-14T00:38:50.200Z,930.67
2017-06-14T00:39:18.321Z,930.64
2017-06-14T00:39:46.590Z,930.66
2017-06-14T00:40:14.826Z,930.66
2017-06-14T00:40:42.883Z,930.64
2017-06-14T00:41:11.247Z,930.66
2017-06-14T00:41:39.543Z,930.63
2017-06-14T00:42:07.752Z,930.62
2017-06-14T00:43:18.969Z,930.62
2017-06-14T00:43:47.265Z,930.61
2017-06-14T00:44:15.558Z,930.53
2017-06-14T00:44:43.900Z,930.56
2017-06-14T00:45:12.105Z,930.52
2017-06-14T00:45:40.276Z,930.52
2017-06-14T00:46:08.228Z,930.48
2017-06-14T00:46:36.721Z,930.47
2017-06-14T00:47:04.991Z,930.48
2017-06-14T00:47:33.272Z,930.41
2017-06-14T00:48:01.571Z,930.4
2017-06-14T00:49:12.879Z,930.35
2017-06-14T00:49:41.210Z,930.34
2017-06-14T00:50:09.416Z,930.33
2017-06-14T00:50:37.564Z,930.32
2017-06-14T00:51:06.526Z,930.3
2017-06-14T00:51:34.695Z,930.3
2017-06-14T00:52:02.844Z,930.37
2017-06-14T00:52:31.015Z,930.32
2017-06-14T00:52:59.194Z,930.35
2017-06-14T00:53:27.486Z,930.33
2017-06-14T00:53:55.604Z,930.35
2017-06-14T00:55:06.931Z,930.31
2017-06-14T00:55:35.266Z,930.31
2017-06-14T00:56:03.482Z,930.27
2017-06-14T00:56:31.844Z,930.22
2017-06-14T00:57:00.053Z,930.16
2017-06-14T00:57:28.229Z,930.11
2017-06-14T00:57:56.479Z,930.08
2017-06-14T00:58:24.355Z,929.98
2017-06-14T00:58:52.729Z,929.97
2017-06-14T00:59:21.128Z,929.95
2017-06-14T00:59:49.338Z,929.96
2017-06-14T01:01:00.572Z,929.92
2017-06-14T01:01:28.894Z,929.97
2017-06-14T01:01:57.183Z,930.03
2017-06-14T01:02:25.534Z,930.06
2017-06-14T01:02:53.652Z,930.02
2017-06-14T01:03:21.825Z,930.04
2017-06-14T01:03:49.889Z,930.04
2017-06-14T01:04:18.054Z,930.01
2017-06-14T01:04:46.316Z,929.94
2017-06-14T01:05:14.599Z,929.94
2017-06-14T01:05:42.712Z,929.83
2017-06-14T01:06:54.023Z,929.82
2017-06-14T01:07:22.241Z,929.62
2017-06-14T01:07:50.556Z,929.58
2017-06-14T01:08:18.817Z,929.51
2017-06-14T01:08:47.038Z,929.5
2017-06-14T01:09:15.030Z,929.41
2017-06-14T01:09:43.074Z,929.38
2017-06-14T01:10:11.137Z,929.33
2017-06-14T01:10:39.487Z,929.29
2017-06-14T01:11:07.765Z,929.26
2017-06-14T01:11:35.979Z,929.21
2017-06-14T01:12:47.298Z,929.13
2017-06-14T01:13:15.666Z,929.03
2017-06-14T01:13:43.989Z,929.06
2017-06-14T01:14:12.346Z,929.03
2017-06-14T01:14:40.559Z,929
2017-06-14T01:15:08.738Z,929.05
2017-06-14T01:15:36.810Z,929.03
2017-06-14T01:16:04.980Z,929.05
2017-06-14T01:16:33.348Z,929.03
2017-06-14T01:17:01.657Z,929.02
2017-06-14T01:17:29.775Z,929.02
2017-06-14T01:18:41.113Z,928.99
2017-06-14T01:19:09.443Z,929.09
2017-06-14T01:19:37.777Z,929.09
2017-06-14T01:20:06.119Z,929.14
2017-06-14T01:20:34.327Z,929.18
2017-06-14T01:21:02.596Z,929.13
2017-06-14T01:21:30.740Z,929.14
2017-06-14T01:21:58.894Z,929.13
2017-06-14T01:22:27.178Z,929.05
2017-06-14T01:22:55.577Z,929.02
2017-06-14T01:23:23.791Z,928.96
2017-06-14T01:24:35.101Z,928.89
2017-06-14T01:25:03.340Z,928.79
2017-06-14T01:25:31.683Z,928.78
2017-06-14T01:25:59.946Z,928.83
2017-06-14T01:26:28.165Z,928.81
2017-06-14T01:26:56.435Z,928.8
2017-06-14T01:27:24.591Z,928.86
2017-06-14T01:27:52.855Z,928.86
2017-06-14T01:28:21.244Z,928.9
2017-06-14T01:28:49.551Z,928.94
2017-06-14T01:29:17.762Z,928.98
2017-06-14T01:30:29.101Z,929.05
2017-06-14T01:30:57.436Z,929.17
2017-06-14T01:31:25.788Z,929.21
2017-06-14T01:31:54.139Z,929.28
2017-06-14T01:32:22.274Z,929.3
2017-06-14T01:32:50.545Z,929.32
2017-06-14T01:33:18.703Z,929.37
2017-06-14T01:33:46.871Z,929.38
2017-06-14T01:34:15.128Z,929.45
2017-06-14T01:34:43.535Z,929.5
2017-06-14T01:35:11.841Z,929.52
2017-06-14T01:36:23.154Z,929.57
2017-06-14T01:36:51.484Z,929.69
2017-06-14T01:37:20.164Z,929.69
2017-06-14T01:37:48.511Z,929.72
2017-06-14T01:38:16.634Z,929.77
2017-06-14T01:38:44.812Z,929.8
2017-06-14T01:39:12.955Z,929.8
2017-06-14T01:39:41.228Z,929.85
2017-06-14T01:40:09.475Z,929.88
2017-06-14T01:40:37.693Z,929.94
2017-06-14T01:41:05.923Z,929.94
2017-06-14T01:42:17.269Z,929.93
2017-06-14T01:42:45.612Z,929.97
2017-06-14T01:43:13.838Z,929.92
2017-06-14T01:43:42.149Z,929.93
2017-06-14T01:44:10.170Z,929.91
2017-06-14T01:44:38.365Z,929.93
2017-06-14T01:45:06.511Z,929.88
2017-06-14T01:45:34.674Z,929.82
2017-06-14T01:46:03.046Z,929.83
2017-06-14T01:46:31.465Z,929.81
2017-06-14T01:46:59.679Z,929.79
2017-06-14T01:48:11.018Z,929.8
2017-06-14T01:48:39.348Z,929.84
2017-06-14T01:49:07.583Z,929.86
2017-06-14T01:49:35.950Z,929.87
2017-06-14T01:50:04.157Z,929.91
2017-06-14T01:50:32.424Z,929.91
2017-06-14T01:51:00.594Z,929.86
2017-06-14T01:51:28.880Z,929.88
2017-06-14T01:51:57.172Z,929.87
2017-06-14T01:52:25.571Z,929.9
2017-06-14T01:52:53.779Z,929.9
2017-06-14T01:54:05.133Z,929.9
2017-06-14T01:54:33.351Z,929.98
2017-06-14T01:55:01.594Z,930.07
2017-06-14T01:55:29.857Z,930.06
2017-06-14T01:55:58.072Z,930.11
2017-06-14T01:56:26.062Z,930.15
2017-06-14T01:56:54.304Z,930.21
2017-06-14T01:57:22.383Z,930.24
2017-06-14T01:57:50.630Z,930.26
2017-06-14T01:58:18.919Z,930.27
2017-06-14T01:58:47.127Z,930.29
2017-06-14T01:59:58.437Z,930.28
2017-06-14T02:00:26.651Z,930.21
2017-06-14T02:00:54.862Z,930.15
2017-06-14T02:01:23.192Z,930.12
2017-06-14T02:01:51.320Z,930.06
2017-06-14T02:02:19.591Z,930.01
2017-06-14T02:02:47.824Z,929.97
2017-06-14T02:03:16.076Z,929.98
2017-06-14T02:03:44.784Z,930
2017-06-14T02:04:13.171Z,929.95
2017-06-14T02:04:41.393Z,929.94
2017-06-14T02:05:52.715Z,929.96
2017-06-14T02:06:21.050Z,930.03
2017-06-14T02:06:49.360Z,929.99
2017-06-14T02:07:17.703Z,930.01
2017-06-14T02:07:45.930Z,930.01
2017-06-14T02:08:14.212Z,930.08
2017-06-14T02:08:42.342Z,930.08
2017-06-14T02:09:10.409Z,930.08
2017-06-14T02:09:38.661Z,930.09
2017-06-14T02:10:07.037Z,930.08
2017-06-14T02:10:35.251Z,930.09
2017-06-14T02:11:46.555Z,930.07
2017-06-14T02:12:14.848Z,930.09
2017-06-14T02:12:43.066Z,930.06
2017-06-14T02:13:11.307Z,930.11
2017-06-14T02:13:39.436Z,930.09
2017-06-14T02:14:07.707Z,930.07
2017-06-14T02:14:35.942Z,930.07
2017-06-14T02:15:04.205Z,930.04
2017-06-14T02:15:32.566Z,930.02
2017-06-14T02:16:00.850Z,929.97
2017-06-14T02:16:29.060Z,929.88
2017-06-14T02:17:40.369Z,929.87
2017-06-14T02:18:08.579Z,929.74
2017-06-14T02:18:36.868Z,929.67
2017-06-14T02:19:05.208Z,929.64
2017-06-14T02:19:33.330Z,929.61
2017-06-14T02:20:01.605Z,929.57
2017-06-14T02:20:29.745Z,929.53
2017-06-14T02:20:57.817Z,929.51
2017-06-14T02:21:26.169Z,929.46
2017-06-14T02:21:54.453Z,929.43
2017-06-14T02:22:22.786Z,929.42
2017-06-14T02:23:34.074Z,929.43
2017-06-14T02:24:02.374Z,929.39
2017-06-14T02:24:30.564Z,929.4
2017-06-14T02:24:58.902Z,929.37
2017-06-14T02:25:27.027Z,929.34
2017-06-14T02:25:55.300Z,929.35
2017-06-14T02:26:23.449Z,929.3
2017-06-14T02:26:51.610Z,929.31
2017-06-14T02:27:19.958Z,929.36
2017-06-14T02:27:48.336Z,929.38
2017-06-14T02:28:16.550Z,929.45
2017-06-14T02:29:27.863Z,929.45
2017-06-14T02:29:56.159Z,929.65
2017-06-14T02:30:24.445Z,929.73
2017-06-14T02:30:52.685Z,929.8
2017-06-14T02:31:20.806Z,929.85
2017-06-14T02:31:48.983Z,929.96
2017-06-14T02:32:17.210Z,930.02
2017-06-14T02:32:45.367Z,930.07
2017-06-14T02:33:13.738Z,930.15
2017-06-14T02:33:42.148Z,930.26
2017-06-14T02:34:10.449Z,930.34
2017-06-14T02:35:21.757Z,930.39
2017-06-14T02:35:50.058Z,930.56
2017-06-14T02:36:18.251Z,930.65
2017-06-14T02:36:46.583Z,930.65
2017-06-14T02:37:14.801Z,930.68
2017-06-14T02:37:42.981Z,930.69
2017-06-14T02:38:11.261Z,930.71
2017-06-14T02:38:39.418Z,930.71
2017-06-14T02:39:07.672Z,930.72
2017-06-14T02:39:36.044Z,930.66
2017-06-14T02:40:04.345Z,930.69
2017-06-14T02:41:15.654Z,930.66
2017-06-14T02:41:43.947Z,930.58
2017-06-14T02:42:12.137Z,930.57
2017-06-14T02:42:40.474Z,930.56
2017-06-14T02:43:08.686Z,930.52
2017-06-14T02:43:36.767Z,930.52
2017-06-14T02:44:04.822Z,930.49
2017-06-14T02:44:32.979Z,930.46
2017-06-14T02:45:01.235Z,930.4
2017-06-14T02:45:29.420Z,930.34
2017-06-14T02:45:57.728Z,930.28
2017-06-14T02:47:09.041Z,930.26
2017-06-14T02:47:37.344Z,930.14
2017-06-14T02:48:05.633Z,930.15
2017-06-14T02:48:33.968Z,930.09
2017-06-14T02:49:02.183Z,930.1
2017-06-14T02:49:30.459Z,930.11
2017-06-14T02:49:58.603Z,930.07
2017-06-14T02:50:26.754Z,930.09
2017-06-14T02:50:55.096Z,930.11
2017-06-14T02:51:23.374Z,930.14
2017-06-14T02:51:51.490Z,930.16
2017-06-14T02:53:02.798Z,930.17
2017-06-14T02:53:31.091Z,930.2
2017-06-14T02:53:59.374Z,930.18
2017-06-14T02:54:27.615Z,930.19
2017-06-14T02:54:55.734Z,930.18
2017-06-14T02:55:24.206Z,930.19
2017-06-14T02:55:52.438Z,930.21
2017-06-14T02:56:20.595Z,930.2
2017-06-14T02:56:48.945Z,930.17
2017-06-14T02:57:17.317Z,930.14
2017-06-14T02:57:45.619Z,930.12
2017-06-14T02:58:56.929Z,930.08
2017-06-14T02:59:25.220Z,929.99
2017-06-14T02:59:53.502Z,929.89
2017-06-14T03:00:21.835Z,929.9
2017-06-14T03:00:50.047Z,929.8
2017-06-14T03:01:18.316Z,929.73
2017-06-14T03:01:46.549Z,929.68
2017-06-14T03:02:14.705Z,929.61
2017-06-14T03:02:42.964Z,929.54
2017-06-14T03:03:11.154Z,929.53
2017-06-14T03:03:39.459Z,929.45
2017-06-14T03:04:50.767Z,929.43
2017-06-14T03:05:19.055Z,929.34
2017-06-14T03:05:47.338Z,929.27
2017-06-14T03:06:15.385Z,929.29
2017-06-14T03:06:43.600Z,929.25
2017-06-14T03:07:11.871Z,929.25
2017-06-14T03:07:40.015Z,929.21
2017-06-14T03:08:08.169Z,929.21
2017-06-14T03:08:36.515Z,929.22
2017-06-14T03:09:04.888Z,929.18
2017-06-14T03:09:33.190Z,929.17
2017-06-14T03:10:44.312Z,929.17
2017-06-14T03:11:12.605Z,929.16
2017-06-14T03:11:40.885Z,929.2
2017-06-14T03:12:09.124Z,929.2
2017-06-14T03:12:37.339Z,929.22
2017-06-14T03:13:05.611Z,929.23
2017-06-14T03:13:33.847Z,929.24
2017-06-14T03:14:01.999Z,929.28
2017-06-14T03:14:30.251Z,929.26
2017-06-14T03:14:58.529Z,929.29
2017-06-14T03:15:26.740Z,929.29
2017-06-14T03:16:38.043Z,929.35
2017-06-14T03:17:06.346Z,929.42
2017-06-14T03:17:34.630Z,929.46
2017-06-14T03:18:02.866Z,929.55
2017-06-14T03:18:31.080Z,929.61
2017-06-14T03:18:59.248Z,929.7
2017-06-14T03:19:27.384Z,929.8
2017-06-14T03:19:55.448Z,929.92
2017-06-14T03:20:23.798Z,929.96
2017-06-14T03:20:52.078Z,930.04
2017-06-14T03:21:20.288Z,930.12
2017-06-14T03:22:31.596Z,930.15
2017-06-14T03:22:59.891Z,930.25
2017-06-14T03:23:28.167Z,930.3
2017-06-14T03:23:56.403Z,930.36
2017-06-14T03:24:24.613Z,930.35
2017-06-14T03:24:52.793Z,930.41
2017-06-14T03:25:21.028Z,930.4
2017-06-14T03:25:49.273Z,930.4
2017-06-14T03:26:17.523Z,930.42
2017-06-14T03:26:45.801Z,930.43
2017-06-14T03:27:14.028Z,930.44
2017-06-14T03:28:25.313Z,930.46
2017-06-14T03:28:53.421Z,930.51
2017-06-14T03:29:21.700Z,930.54
2017-06-14T03:29:50.029Z,930.59
2017-06-14T03:30:18.143Z,930.58
2017-06-14T03:30:46.319Z,930.59
2017-06-14T03:31:14.452Z,930.63
2017-06-14T03:31:42.514Z,930.61
2017-06-14T03:32:10.768Z,930.62
2017-06-14T03:32:39.140Z,930.61
2017-06-14T03:33:07.445Z,930.6
2017-06-14T03:34:18.749Z,930.65
2017-06-14T03:34:46.947Z,930.71
2017-06-14T03:35:15.135Z,930.73
2017-06-14T03:35:43.369Z,930.78
2017-06-14T03:36:11.486Z,930.79
2017-06-14T03:36:39.657Z,930.81
2017-06-14T03:37:07.887Z,930.84
2017-06-14T03:37:36.038Z,930.89
2017-06-14T03:38:04.383Z,930.89
2017-06-14T03:38:32.664Z,930.88
2017-06-14T03:39:00.964Z,930.92
2017-06-14T03:40:12.269Z,930.94
2017-06-14T03:40:40.468Z,930.99
2017-06-14T03:41:08.565Z,930.98
2017-06-14T03:41:36.891Z,931.02
2017-06-14T03:42:05.009Z,931.07
2017-06-14T03:42:33.092Z,931.07
2017-06-14T03:43:01.319Z,931.08
2017-06-14T03:43:29.373Z,931.12
2017-06-14T03:43:57.715Z,931.1
2017-06-14T03:44:26.085Z,931.11
2017-06-14T03:44:54.388Z,931.14
2017-06-14T03:46:05.594Z,931.08
2017-06-14T03:46:33.608Z,931.08
2017-06-14T03:47:01.789Z,931.1
2017-06-14T03:47:30.026Z,931.12
2017-06-14T03:47:58.234Z,931.05
2017-06-14T03:48:26.316Z,931.03
2017-06-14T03:48:54.544Z,930.96
2017-06-14T03:49:22.416Z,930.92
2017-06-14T03:49:50.903Z,930.84
2017-06-14T03:50:19.173Z,930.77
2017-06-14T03:50:47.477Z,930.66
2017-06-14T03:51:58.774Z,930.62
2017-06-14T03:52:26.974Z,930.45
2017-06-14T03:52:55.250Z,930.4
2017-06-14T03:53:23.579Z,930.39
2017-06-14T03:53:51.784Z,930.37
2017-06-14T03:54:19.956Z,930.41
2017-06-14T03:54:47.996Z,930.46
2017-06-14T03:55:16.235Z,930.53
2017-06-14T03:55:44.580Z,930.58
2017-06-14T03:56:12.765Z,930.65
2017-06-14T03:56:40.978Z,930.69
2017-06-14T03:57:52.188Z,930.7
2017-06-14T03:58:20.390Z,930.77
2017-06-14T03:58:48.577Z,930.79
2017-06-14T03:59:16.720Z,930.71
2017-06-14T03:59:44.932Z,930.65
2017-06-14T04:00:13.104Z,930.56
2017-06-14T04:00:41.239Z,930.51
2017-06-14T04:01:09.395Z,930.37
2017-06-14T04:01:37.640Z,930.31
2017-06-14T04:02:05.925Z,930.22
2017-06-14T04:02:34.227Z,930.17
2017-06-14T04:03:45.528Z,930.13
2017-06-14T04:04:13.820Z,930.16
2017-06-14T04:04:42.045Z,930.16
2017-06-14T04:05:10.245Z,930.2
2017-06-14T04:05:38.469Z,930.24
2017-06-14T04:06:06.631Z,930.19
2017-06-14T04:06:34.875Z,930.2
2017-06-14T04:07:03.020Z,930.23
2017-06-14T04:07:31.274Z,930.18
2017-06-14T04:07:59.532Z,930.19
2017-06-14T04:08:27.739Z,930.18
2017-06-14T04:09:38.949Z,930.14
2017-06-14T04:10:07.235Z,930.18
2017-06-14T04:10:35.533Z,930.2
2017-06-14T04:11:03.764Z,930.21
2017-06-14T04:11:31.893Z,930.2
2017-06-14T04:12:00.160Z,930.18
2017-06-14T04:12:28.449Z,930.23
2017-06-14T04:12:56.703Z,930.2
2017-06-14T04:13:25.029Z,930.13
2017-06-14T04:13:53.219Z,930.12
2017-06-14T04:14:21.524Z,930.15
2017-06-14T04:15:32.826Z,930.14
2017-06-14T04:16:01.130Z,930.26
2017-06-14T04:16:29.427Z,930.32
2017-06-14T04:16:57.748Z,930.34
2017-06-14T04:17:25.977Z,930.46
2017-06-14T04:17:54.137Z,930.52
2017-06-14T04:18:22.296Z,930.55
2017-06-14T04:18:50.341Z,930.62
2017-06-14T04:19:18.685Z,930.66
2017-06-14T04:19:47.038Z,930.72
2017-06-14T04:20:15.148Z,930.74
2017-06-14T04:21:26.451Z,930.8
2017-06-14T04:21:54.570Z,930.93
2017-06-14T04:22:22.873Z,930.93
2017-06-14T04:22:51.195Z,930.93
2017-06-14T04:23:19.423Z,930.93
2017-06-14T04:23:47.598Z,930.95
2017-06-14T04:24:15.891Z,930.92
2017-06-14T04:24:44.141Z,930.91
2017-06-14T04:25:12.480Z,930.91
2017-06-14T04:25:40.739Z,930.92
2017-06-14T04:26:08.946Z,930.83
2017-06-14T04:27:20.060Z,930.81
2017-06-14T04:27:48.363Z,930.7
2017-06-14T04:28:16.660Z,930.69
2017-06-14T04:28:44.886Z,930.71
2017-06-14T04:29:13.023Z,930.62
2017-06-14T04:29:41.292Z,930.63
2017-06-14T04:30:09.488Z,930.62
2017-06-14T04:30:37.737Z,930.62
2017-06-14T04:31:06.058Z,930.59
2017-06-14T04:31:34.442Z,930.54
2017-06-14T04:32:02.746Z,930.5
2017-06-14T04:33:14.068Z,930.5
2017-06-14T04:33:42.261Z,930.49
2017-06-14T04:34:10.568Z,930.47
2017-06-14T04:34:38.790Z,930.49
2017-06-14T04:35:07.019Z,930.53
2017-06-14T04:35:35.287Z,930.54
2017-06-14T04:36:03.579Z,930.49
2017-06-14T04:36:31.836Z,930.54
2017-06-14T04:36:59.979Z,930.51
2017-06-14T04:37:28.261Z,930.54
2017-06-14T04:37:56.472Z,930.54
2017-06-14T04:39:07.778Z,930.55
2017-06-14T04:39:36.079Z,930.63
2017-06-14T04:40:04.381Z,930.63
2017-06-14T04:40:32.703Z,930.64
2017-06-14T04:41:00.934Z,930.69
2017-06-14T04:41:29.104Z,930.65
2017-06-14T04:41:57.394Z,930.64
2017-06-14T04:42:25.551Z,930.67
2017-06-14T04:42:53.780Z,930.64
2017-06-14T04:43:22.159Z,930.64
2017-06-14T04:43:50.462Z,930.65
2017-06-14T04:45:01.575Z,930.63
2017-06-14T04:45:29.877Z,930.6
2017-06-14T04:45:57.989Z,930.58
2017-06-14T04:46:26.023Z,930.62
2017-06-14T04:46:54.165Z,930.59
2017-06-14T04:47:22.244Z,930.61
2017-06-14T04:47:50.536Z,930.63
2017-06-14T04:48:18.603Z,930.66
2017-06-14T04:48:46.927Z,930.68
2017-06-14T04:49:15.307Z,930.64
2017-06-14T04:49:43.515Z,930.69
2017-06-14T04:50:54.625Z,930.67
2017-06-14T04:51:22.928Z,930.66
2017-06-14T04:51:51.227Z,930.68
2017-06-14T04:52:19.545Z,930.64
2017-06-14T04:52:47.779Z,930.7
2017-06-14T04:53:15.946Z,930.68
2017-06-14T04:53:44.237Z,930.65
2017-06-14T04:54:12.397Z,930.65
2017-06-14T04:54:40.627Z,930.63
2017-06-14T04:55:09.004Z,930.6
2017-06-14T04:55:37.112Z,930.58
2017-06-14T04:56:48.319Z,930.59
2017-06-14T04:57:16.635Z,930.59
2017-06-14T04:57:44.924Z,930.56
2017-06-14T04:58:13.247Z,930.57
2017-06-14T04:58:41.285Z,930.54
2017-06-14T04:59:09.544Z,930.55
2017-06-14T04:59:37.837Z,930.57
2017-06-14T05:00:05.989Z,930.53
2017-06-14T05:00:34.129Z,930.51
2017-06-14T05:01:02.508Z,930.5
2017-06-14T05:01:30.719Z,930.5
2017-06-14T05:02:42.021Z,930.51
2017-06-14T05:03:10.327Z,930.48
2017-06-14T05:03:38.623Z,930.46
2017-06-14T05:04:06.940Z,930.44
2017-06-14T05:04:35.072Z,930.41
2017-06-14T05:05:03.141Z,930.41
2017-06-14T05:05:31.336Z,930.39
2017-06-14T05:05:59.587Z,930.35
2017-06-14T05:06:27.914Z,930.37
2017-06-14T05:06:56.199Z,930.37
2017-06-14T05:07:24.494Z,930.38
2017-06-14T05:08:35.705Z,930.36
2017-06-14T05:09:03.818Z,930.33
2017-06-14T05:09:31.923Z,930.34
2017-06-14T05:09:59.970Z,930.27
2017-06-14T05:10:28.198Z,930.3
2017-06-14T05:10:56.368Z,930.28
2017-06-14T05:11:24.568Z,930.27
2017-06-14T05:11:52.633Z,930.29
2017-06-14T05:12:20.767Z,930.28
2017-06-14T05:12:49.055Z,930.31
2017-06-14T05:13:17.267Z,930.3
2017-06-14T05:14:28.475Z,930.29
2017-06-14T05:14:56.585Z,930.31
2017-06-14T05:15:24.884Z,930.31
2017-06-14T05:15:53.206Z,930.36
2017-06-14T05:16:21.438Z,930.29
2017-06-14T05:16:49.616Z,930.31
2017-06-14T05:17:17.913Z,930.31
2017-06-14T05:17:46.067Z,930.33
2017-06-14T05:18:14.390Z,930.33
2017-06-14T05:18:42.588Z,930.33
2017-06-14T05:19:10.893Z,930.31
2017-06-14T05:20:22.102Z,930.28
2017-06-14T05:20:50.313Z,930.23
2017-06-14T05:21:18.608Z,930.22
2017-06-14T05:21:46.669Z,930.2
2017-06-14T05:22:14.714Z,930.13
2017-06-14T05:22:42.980Z,930.12
2017-06-14T05:23:11.178Z,930.08
2017-06-14T05:23:39.340Z,930.07
2017-06-14T05:24:07.660Z,930.04
2017-06-14T05:24:35.950Z,930.04
2017-06-14T05:25:04.062Z,929.99
2017-06-14T05:26:15.367Z,929.99
2017-06-14T05:26:43.670Z,929.98
2017-06-14T05:27:11.967Z,929.96
2017-06-14T05:27:40.286Z,929.95
2017-06-14T05:28:08.417Z,930.03
2017-06-14T05:28:36.495Z,929.99
2017-06-14T05:29:04.789Z,930
2017-06-14T05:29:32.944Z,929.96
2017-06-14T05:30:01.267Z,930
2017-06-14T05:30:29.649Z,929.96
2017-06-14T05:30:57.855Z,929.97
2017-06-14T05:32:08.966Z,929.96
2017-06-14T05:32:37.272Z,929.95
2017-06-14T05:33:05.570Z,929.95
2017-06-14T05:33:33.892Z,929.94
2017-06-14T05:34:02.121Z,929.97
2017-06-14T05:34:30.198Z,929.96
2017-06-14T05:34:58.490Z,929.96
2017-06-14T05:35:26.644Z,929.98
2017-06-14T05:35:54.774Z,929.97
2017-06-14T05:36:23.156Z,929.97
2017-06-14T05:36:51.459Z,930.03
2017-06-14T05:38:02.763Z,930.05
2017-06-14T05:38:31.065Z,930.09
2017-06-14T05:38:59.362Z,930.12
2017-06-14T05:39:27.589Z,930.14
2017-06-14T05:39:55.850Z,930.16
2017-06-14T05:40:23.939Z,930.19
2017-06-14T05:40:52.136Z,930.22
2017-06-14T05:41:20.296Z,930.18
2017-06-14T05:41:48.527Z,930.25
2017-06-14T05:42:16.907Z,930.21
2017-06-14T05:42:45.208Z,930.22
2017-06-14T05:43:56.413Z,930.2
2017-06-14T05:44:24.629Z,930.23
2017-06-14T05:44:52.834Z,930.24
2017-06-14T05:45:21.063Z,930.19
2017-06-14T05:45:49.291Z,930.21
2017-06-14T05:46:17.551Z,930.23
2017-06-14T05:46:45.847Z,930.19
2017-06-14T05:47:13.912Z,930.24
2017-06-14T05:47:42.145Z,930.22
2017-06-14T05:48:10.529Z,930.22
2017-06-14T05:48:38.831Z,930.19
2017-06-14T05:49:50.042Z,930.2
2017-06-14T05:50:18.252Z,930.19
2017-06-14T05:50:46.550Z,930.17
2017-06-14T05:51:14.787Z,930.14
2017-06-14T05:51:43.018Z,930.16
2017-06-14T05:52:11.282Z,930.15
2017-06-14T05:52:39.577Z,930.1
2017-06-14T05:53:07.828Z,930.1
2017-06-14T05:53:36.148Z,930.11
2017-06-14T05:54:04.526Z,930.08
2017-06-14T05:54:32.827Z,930.11
2017-06-14T05:55:44.129Z,930.07
2017-06-14T05:56:12.243Z,930.07
2017-06-14T05:56:40.441Z,930.02
2017-06-14T05:57:09.119Z,930.03
2017-06-14T05:57:37.348Z,930.03
2017-06-14T05:58:05.426Z,929.98
2017-06-14T05:58:33.719Z,929.97
2017-06-14T05:59:01.878Z,930
2017-06-14T05:59:30.107Z,929.96
2017-06-14T05:59:58.481Z,929.97
2017-06-14T06:00:26.776Z,929.95
2017-06-14T06:01:37.985Z,929.89
2017-06-14T06:02:06.194Z,929.94
2017-06-14T06:02:34.307Z,929.94
2017-06-14T06:03:02.439Z,929.92
2017-06-14T06:03:30.573Z,929.91
2017-06-14T06:03:58.742Z,929.92
2017-06-14T06:04:27.040Z,929.9
2017-06-14T06:04:55.288Z,929.87
2017-06-14T06:05:23.610Z,929.86
2017-06-14T06:05:51.892Z,929.88
2017-06-14T06:06:20.195Z,929.86
2017-06-14T06:07:31.499Z,929.89
2017-06-14T06:07:59.710Z,929.92
2017-06-14T06:08:27.833Z,929.93
2017-06-14T06:08:56.153Z,929.92
2017-06-14T06:09:24.380Z,929.93
2017-06-14T06:09:52.549Z,929.91
2017-06-14T06:10:20.846Z,929.92
2017-06-14T06:10:49.000Z,929.9
2017-06-14T06:11:17.229Z,929.91
2017-06-14T06:11:45.604Z,929.89
2017-06-14T06:12:13.906Z,929.86
2017-06-14T06:13:25.113Z,929.91
2017-06-14T06:13:53.323Z,929.91
2017-06-14T06:14:21.527Z,929.91
2017-06-14T06:14:49.850Z,929.86
2017-06-14T06:15:17.984Z,929.89
2017-06-14T06:15:46.152Z,929.89
2017-06-14T06:16:14.255Z,929.86
2017-06-14T06:16:42.503Z,929.87
2017-06-14T06:17:10.635Z,929.83
2017-06-14T06:17:38.919Z,929.86
2017-06-14T06:18:07.123Z,929.85
2017-06-14T06:19:18.427Z,929.85
2017-06-14T06:19:46.732Z,929.86
2017-06-14T06:20:14.933Z,929.87
2017-06-14T06:20:43.256Z,929.83
2017-06-14T06:21:11.398Z,929.8
2017-06-14T06:21:39.657Z,929.82
2017-06-14T06:22:07.947Z,929.82
2017-06-14T06:22:36.201Z,929.79
2017-06-14T06:23:04.527Z,929.79
2017-06-14T06:23:32.901Z,929.8
2017-06-14T06:24:01.203Z,929.77
2017-06-14T06:25:12.409Z,929.76
2017-06-14T06:25:40.617Z,929.81
2017-06-14T06:26:08.735Z,929.84
2017-06-14T06:26:37.057Z,929.88
2017-06-14T06:27:05.285Z,929.89
2017-06-14T06:27:33.455Z,929.94
2017-06-14T06:28:01.656Z,929.95
2017-06-14T06:28:29.811Z,930.01
2017-06-14T06:28:58.034Z,930
2017-06-14T06:29:26.412Z,930
2017-06-14T06:29:54.710Z,929.95
2017-06-14T06:31:06.017Z,929.99
2017-06-14T06:31:34.224Z,929.97
2017-06-14T06:32:02.521Z,929.99
2017-06-14T06:32:30.845Z,929.97
2017-06-14T06:32:59.070Z,930
2017-06-14T06:33:27.330Z,930.01
2017-06-14T06:33:55.627Z,930.01
2017-06-14T06:34:23.876Z,930.04
2017-06-14T06:34:52.104Z,930.08
2017-06-14T06:35:20.481Z,930.1
2017-06-14T06:35:48.686Z,930.1
2017-06-14T06:36:59.991Z,930.11
2017-06-14T06:37:28.198Z,930.09
2017-06-14T06:37:56.498Z,930.16
2017-06-14T06:38:24.819Z,930.13
2017-06-14T06:38:52.859Z,930.12
2017-06-14T06:39:20.934Z,930.09
2017-06-14T06:39:49.130Z,930.08
2017-06-14T06:40:17.285Z,930.04
2017-06-14T06:40:45.509Z,930.05
2017-06-14T06:41:13.888Z,930.02
2017-06-14T06:41:42.092Z,929.97
2017-06-14T06:42:53.208Z,929.97
2017-06-14T06:43:21.508Z,929.89